createdAt,value
2019-01-19T00:00:40.728Z,4.40
2019-01-19T00:03:56.046Z,3.67
2019-01-19T00:07:03.704Z,4.37
2019-01-19T00:09:54.934Z,4.20
2019-01-19T00:12:55.211Z,4.20
2019-01-19T00:15:48.715Z,4.07
2019-01-19T00:19:03.132Z,4.33
2019-01-19T00:21:49.778Z,4.40
2019-01-19T00:24:43.984Z,4.23
2019-01-19T00:27:32.916Z,4.70
2019-01-19T00:30:40.701Z,4.53
2019-01-19T00:33:57.975Z,5.00
2019-01-19T00:36:45.306Z,4.90
2019-01-19T00:39:52.235Z,5.40
2019-01-19T00:43:06.661Z,4.63
2019-01-19T00:46:12.841Z,5.03
2019-01-19T00:49:17.476Z,5.07
2019-01-19T00:52:15.034Z,5.17
2019-01-19T00:55:17.986Z,5.50
2019-01-19T00:58:35.090Z,4.97
2019-01-19T01:01:26.413Z,6.17
2019-01-19T01:04:43.232Z,6.77
2019-01-19T01:07:27.506Z,5.70
2019-01-19T01:10:25.302Z,5.70
2019-01-19T01:13:27.847Z,6.00
2019-01-19T01:16:36.878Z,6.20
2019-01-19T01:19:43.158Z,6.17
2019-01-19T01:22:21.899Z,6.03
2019-01-19T01:25:39.369Z,6.33
2019-01-19T01:28:19.239Z,6.60
2019-01-19T01:31:25.704Z,6.80
2019-01-19T01:34:41.707Z,6.63
2019-01-19T01:37:35.814Z,6.77
2019-01-19T01:40:49.031Z,7.13
2019-01-19T01:43:40.545Z,6.90
2019-01-19T01:46:21.526Z,6.60
2019-01-19T01:49:14.076Z,6.80
2019-01-19T01:52:19.663Z,7.03
2019-01-19T01:55:14.217Z,7.07
2019-01-19T01:58:12.026Z,7.10
2019-01-19T02:00:53.394Z,7.13
2019-01-19T02:03:48.368Z,6.97
2019-01-19T02:07:05.410Z,7.20
2019-01-19T02:10:03.062Z,7.37
2019-01-19T02:12:45.240Z,7.23
2019-01-19T02:15:56.376Z,7.53
2019-01-19T02:19:16.146Z,7.30
2019-01-19T02:22:04.720Z,7.73
2019-01-19T02:24:53.366Z,7.50
2019-01-19T02:28:13.750Z,7.90
2019-01-19T02:31:27.427Z,8.30
2019-01-19T02:34:46.975Z,8.43
2019-01-19T02:37:54.302Z,8.53
2019-01-19T02:41:11.551Z,9.17
2019-01-19T02:44:27.792Z,9.00
2019-01-19T02:47:37.656Z,9.13
2019-01-19T02:50:31.658Z,9.33
2019-01-19T02:53:38.559Z,9.40
2019-01-19T02:56:48.891Z,8.50
2019-01-19T02:59:30.504Z,9.30
2019-01-19T03:02:06.967Z,9.47
2019-01-19T03:05:08.570Z,9.07
2019-01-19T03:08:25.631Z,9.17
2019-01-19T03:11:35.279Z,8.57
2019-01-19T03:14:50.553Z,8.97
2019-01-19T03:17:57.088Z,9.50
2019-01-19T03:21:07.140Z,8.97
2019-01-19T03:24:09.871Z,9.53
2019-01-19T03:27:02.142Z,8.77
2019-01-19T03:29:59.905Z,9.37
2019-01-19T03:33:11.063Z,9.20
2019-01-19T03:35:49.778Z,9.30
2019-01-19T03:38:49.606Z,9.27
2019-01-19T03:42:10.048Z,9.30
2019-01-19T03:45:05.791Z,10.13
2019-01-19T03:48:01.136Z,10.03
2019-01-19T03:51:00.914Z,10.70
2019-01-19T03:53:46.889Z,10.90
2019-01-19T03:56:51.772Z,10.27
2019-01-19T04:00:05.558Z,9.67
2019-01-19T04:03:26.655Z,9.87
2019-01-19T04:06:14.030Z,10.63
2019-01-19T04:09:36.998Z,10.90
2019-01-19T04:12:46.796Z,10.90
2019-01-19T04:15:39.697Z,10.37
2019-01-19T04:18:37.668Z,10.57
2019-01-19T04:21:39.373Z,11.17
2019-01-19T04:24:30.181Z,11.27
2019-01-19T04:26:59.771Z,11.10
2019-01-19T04:29:29.632Z,10.63
2019-01-19T04:31:59.808Z,11.17
2019-01-19T04:34:30.553Z,11.00
2019-01-19T04:37:00.756Z,10.17
2019-01-19T04:39:31.053Z,11.47
2019-01-19T04:42:01.390Z,11.33
2019-01-19T04:44:31.009Z,10.57
2019-01-19T04:47:01.052Z,8.30
2019-01-19T04:49:30.878Z,10.90
2019-01-19T04:52:01.276Z,10.27
2019-01-19T04:54:31.263Z,10.70
2019-01-19T04:57:02.775Z,10.97
2019-01-19T04:59:32.868Z,10.70
2019-01-19T05:02:03.045Z,8.93
2019-01-19T05:04:34.293Z,10.80
2019-01-19T05:07:03.840Z,11.33
2019-01-19T05:09:33.886Z,11.23
2019-01-19T05:12:04.347Z,12.00
2019-01-19T05:14:34.459Z,12.43
2019-01-19T05:17:04.076Z,12.07
2019-01-19T05:19:34.480Z,12.60
2019-01-19T05:22:04.604Z,12.67
2019-01-19T05:24:34.170Z,12.50
2019-01-19T05:27:04.216Z,12.20
2019-01-19T05:29:33.719Z,12.67
2019-01-19T05:32:03.444Z,11.10
2019-01-19T05:34:33.391Z,13.07
2019-01-19T05:37:03.408Z,9.57
2019-01-19T05:39:35.024Z,12.40
2019-01-19T05:42:05.486Z,9.37
2019-01-19T05:44:35.599Z,9.60
2019-01-19T05:47:06.292Z,10.00
2019-01-19T05:49:35.895Z,10.03
2019-01-19T05:52:05.979Z,9.53
2019-01-19T05:54:40.834Z,9.13
2019-01-19T05:57:11.168Z,9.60
2019-01-19T05:59:41.601Z,9.60
2019-01-19T06:02:12.023Z,10.30
2019-01-19T06:04:41.643Z,8.60
2019-01-19T06:07:11.753Z,8.70
2019-01-19T06:09:41.322Z,9.10
2019-01-19T06:12:10.856Z,9.73
2019-01-19T06:14:40.943Z,10.17
2019-01-19T06:17:11.124Z,10.23
2019-01-19T06:19:41.339Z,10.00
2019-01-19T06:22:11.575Z,10.30
2019-01-19T06:24:41.687Z,10.20
2019-01-19T06:27:12.296Z,10.10
2019-01-19T06:29:41.868Z,10.60
2019-01-19T06:32:12.397Z,9.43
2019-01-19T06:34:42.599Z,10.17
2019-01-19T06:37:12.426Z,9.43
2019-01-19T06:39:42.571Z,10.07
2019-01-19T06:42:13.205Z,9.70
2019-01-19T06:44:43.443Z,10.17
2019-01-19T06:47:13.711Z,11.87
2019-01-19T06:49:43.963Z,9.77
2019-01-19T06:52:14.960Z,9.93
2019-01-19T06:54:45.352Z,10.23
2019-01-19T06:57:15.613Z,10.17
2019-01-19T06:59:45.953Z,9.23
2019-01-19T07:02:15.561Z,9.37
2019-01-19T07:04:45.655Z,10.60
2019-01-19T07:07:16.401Z,10.23
2019-01-19T07:09:46.155Z,10.47
2019-01-19T07:12:16.242Z,10.47
2019-01-19T07:14:46.615Z,9.70
2019-01-19T07:17:16.284Z,9.40
2019-01-19T07:19:46.170Z,10.47
2019-01-19T07:22:16.456Z,10.03
2019-01-19T07:24:46.764Z,10.03
2019-01-19T07:27:17.125Z,9.17
2019-01-19T07:29:47.726Z,8.87
2019-01-19T07:32:17.274Z,9.07
2019-01-19T07:34:47.380Z,9.00
2019-01-19T07:37:17.716Z,8.87
2019-01-19T07:39:47.444Z,8.83
2019-01-19T07:42:17.995Z,9.23
2019-01-19T07:44:48.117Z,12.53
2019-01-19T07:47:18.336Z,7.93
2019-01-19T07:49:47.823Z,9.07
2019-01-19T07:52:18.779Z,8.83
2019-01-19T07:54:48.371Z,8.20
2019-01-19T07:57:18.600Z,8.20
2019-01-19T07:59:48.703Z,8.40
2019-01-19T08:02:18.331Z,8.50
2019-01-19T08:04:48.275Z,9.13
2019-01-19T08:07:18.357Z,9.30
2019-01-19T08:09:48.463Z,9.30
2019-01-19T08:12:19.007Z,9.30
2019-01-19T08:14:49.080Z,8.10
2019-01-19T08:17:18.695Z,7.70
2019-01-19T08:19:49.063Z,7.17
2019-01-19T08:22:20.797Z,8.07
2019-01-19T08:24:51.887Z,6.10
2019-01-19T08:27:21.574Z,6.80
2019-01-19T08:29:52.579Z,6.27
2019-01-19T08:32:22.548Z,5.93
2019-01-19T08:34:51.998Z,6.47
2019-01-19T08:37:24.562Z,7.00
2019-01-19T08:39:56.483Z,6.80
2019-01-19T08:42:27.041Z,6.93
2019-01-19T08:44:58.047Z,7.73
2019-01-19T08:47:28.245Z,7.23
2019-01-19T08:49:58.198Z,6.97
2019-01-19T08:52:27.823Z,6.60
2019-01-19T08:54:57.395Z,6.00
2019-01-19T08:57:30.113Z,8.07
2019-01-19T09:00:00.451Z,7.00
2019-01-19T09:02:31.000Z,6.13
2019-01-19T09:05:01.370Z,7.17
2019-01-19T09:07:33.862Z,7.13
2019-01-19T09:10:06.091Z,6.30
2019-01-19T09:12:36.172Z,7.47
2019-01-19T09:15:06.918Z,7.30
2019-01-19T09:17:37.178Z,7.30
2019-01-19T09:20:07.922Z,6.70
2019-01-19T09:22:38.295Z,7.37
2019-01-19T09:25:08.863Z,7.77
2019-01-19T09:27:39.317Z,8.50
2019-01-19T09:30:14.935Z,6.63
2019-01-19T09:32:45.858Z,6.37
2019-01-19T09:35:16.616Z,7.13
2019-01-19T09:37:47.075Z,7.23
2019-01-19T09:40:16.783Z,6.83
2019-01-19T09:42:46.537Z,7.20
2019-01-19T09:45:16.168Z,7.37
2019-01-19T09:47:45.730Z,6.53
2019-01-19T09:50:15.497Z,7.63
2019-01-19T09:52:45.755Z,7.50
2019-01-19T09:55:15.317Z,7.63
2019-01-19T09:57:45.565Z,6.93
2019-01-19T10:00:16.906Z,7.17
2019-01-19T10:02:47.031Z,7.23
2019-01-19T10:05:17.917Z,6.70
2019-01-19T10:07:50.024Z,6.93
2019-01-19T10:10:19.713Z,6.80
2019-01-19T10:12:49.243Z,6.47
2019-01-19T10:15:19.626Z,6.83
2019-01-19T10:17:49.293Z,6.20
2019-01-19T10:20:21.748Z,7.17
2019-01-19T10:22:52.236Z,7.27
2019-01-19T10:25:22.807Z,6.03
2019-01-19T10:27:53.016Z,6.33
2019-01-19T10:30:23.494Z,7.40
2019-01-19T10:32:55.125Z,7.00
2019-01-19T10:35:27.268Z,6.77
2019-01-19T10:37:57.475Z,7.73
2019-01-19T10:40:27.718Z,6.27
2019-01-19T10:42:58.402Z,7.13
2019-01-19T10:45:28.560Z,6.60
2019-01-19T10:47:58.137Z,6.20
2019-01-19T10:50:28.034Z,6.40
2019-01-19T10:52:58.113Z,6.67
2019-01-19T10:55:28.373Z,9.53
2019-01-19T10:57:58.451Z,7.33
2019-01-19T11:00:30.187Z,6.20
2019-01-19T11:02:59.762Z,7.47
2019-01-19T11:05:29.660Z,7.10
2019-01-19T11:08:04.027Z,6.60
2019-01-19T11:10:32.276Z,7.27
2019-01-19T11:13:02.524Z,7.00
2019-01-19T11:15:32.122Z,7.10
2019-01-19T11:18:07.955Z,7.47
2019-01-19T11:20:40.029Z,7.37
2019-01-19T11:23:12.052Z,6.70
2019-01-19T11:25:53.903Z,6.87
2019-01-19T11:28:27.873Z,7.23
2019-01-19T11:31:00.341Z,6.60
2019-01-19T11:33:30.599Z,6.97
2019-01-19T11:36:01.307Z,6.53
2019-01-19T11:38:31.047Z,6.97
2019-01-19T11:41:01.245Z,7.27
2019-01-19T11:43:32.369Z,7.37
2019-01-19T11:46:05.685Z,8.03
2019-01-19T11:48:37.123Z,7.80
2019-01-19T11:51:07.372Z,6.80
2019-01-19T11:53:37.694Z,7.20
2019-01-19T11:56:12.262Z,7.90
2019-01-19T11:58:41.176Z,7.80
2019-01-19T12:01:11.370Z,7.00
2019-01-19T12:03:41.841Z,6.97
2019-01-19T12:06:11.975Z,7.13
2019-01-19T12:08:41.831Z,7.30
2019-01-19T12:11:12.451Z,7.83
2019-01-19T12:13:42.139Z,7.80
2019-01-19T12:16:12.367Z,7.37
2019-01-19T12:18:44.229Z,7.10
2019-01-19T12:21:14.343Z,6.80
2019-01-19T12:23:45.725Z,7.57
2019-01-19T12:26:15.282Z,8.30
2019-01-19T12:28:46.290Z,7.47
2019-01-19T12:31:16.460Z,6.40
2019-01-19T12:33:46.222Z,7.20
2019-01-19T12:36:17.076Z,7.93
2019-01-19T12:38:47.150Z,7.57
2019-01-19T12:41:17.695Z,8.17
2019-01-19T12:43:48.230Z,8.17
2019-01-19T12:46:19.439Z,7.93
2019-01-19T12:48:50.090Z,7.97
2019-01-19T12:51:19.978Z,8.27
2019-01-19T12:53:49.503Z,7.97
2019-01-19T12:56:19.299Z,8.60
2019-01-19T12:58:48.773Z,8.83
2019-01-19T13:01:18.153Z,8.63
2019-01-19T13:03:47.997Z,7.90
2019-01-19T13:06:22.915Z,7.83
2019-01-19T13:08:52.919Z,8.10
2019-01-19T13:12:05.041Z,9.00
2019-01-19T13:14:38.761Z,8.27
2019-01-19T13:17:56.747Z,8.63
2019-01-19T13:20:44.375Z,8.27
2019-01-19T13:24:00.506Z,9.47
2019-01-19T13:26:52.092Z,7.60
2019-01-19T13:29:46.852Z,8.80
2019-01-19T13:32:36.388Z,9.13
2019-01-19T13:35:34.903Z,7.43
2019-01-19T13:38:47.640Z,8.70
2019-01-19T13:41:41.189Z,8.20
2019-01-19T13:44:41.742Z,8.47
2019-01-19T13:47:35.958Z,7.97
2019-01-19T13:50:23.393Z,8.10
2019-01-19T13:53:47.010Z,8.77
2019-01-19T13:56:54.327Z,8.50
2019-01-19T13:59:52.147Z,6.73
2019-01-19T14:02:53.967Z,8.80
2019-01-19T14:05:30.637Z,7.90
2019-01-19T14:08:22.859Z,8.00
2019-01-19T14:11:03.980Z,8.53
2019-01-19T14:13:42.575Z,8.37
2019-01-19T14:16:50.406Z,8.27
2019-01-19T14:19:43.258Z,8.23
2019-01-19T14:22:45.362Z,9.13
2019-01-19T14:26:00.235Z,9.40
2019-01-19T14:28:39.599Z,8.80
2019-01-19T14:31:48.332Z,8.33
2019-01-19T14:34:55.078Z,8.27
2019-01-19T14:37:42.606Z,8.80
2019-01-19T14:40:25.591Z,8.80
2019-01-19T14:43:33.386Z,8.00
2019-01-19T14:46:43.481Z,8.23
2019-01-19T14:50:09.345Z,7.47
2019-01-19T14:53:27.022Z,8.13
2019-01-19T14:56:15.753Z,8.30
2019-01-19T14:59:16.386Z,8.20
2019-01-19T15:02:48.704Z,7.73
2019-01-19T15:05:55.955Z,8.33
2019-01-19T15:08:48.143Z,8.60
2019-01-19T15:11:35.718Z,8.40
2019-01-19T15:14:56.882Z,8.60
2019-01-19T15:17:33.681Z,8.30
2019-01-19T15:20:34.851Z,8.17
2019-01-19T15:23:22.820Z,7.80
2019-01-19T15:26:35.866Z,7.13
2019-01-19T15:29:19.142Z,8.00
2019-01-19T15:32:22.699Z,9.03
2019-01-19T15:35:22.913Z,8.73
2019-01-19T15:38:42.803Z,7.87
2019-01-19T15:41:40.756Z,8.20
2019-01-19T15:44:17.066Z,8.73
2019-01-19T15:47:21.217Z,9.40
2019-01-19T15:50:17.472Z,8.07
2019-01-19T15:53:06.017Z,8.40
2019-01-19T15:55:57.806Z,8.37
2019-01-19T15:58:33.374Z,8.37
2019-01-19T16:01:31.761Z,7.87
2019-01-19T16:04:26.186Z,7.97
2019-01-19T16:07:23.008Z,8.70
2019-01-19T16:10:21.781Z,8.37
2019-01-19T16:12:58.031Z,7.90
2019-01-19T16:16:11.826Z,9.37
2019-01-19T16:19:00.578Z,8.07
2019-01-19T16:21:54.479Z,7.87
2019-01-19T16:25:33.214Z,7.50
2019-01-19T16:28:32.274Z,8.40
2019-01-19T16:31:30.108Z,8.73
2019-01-19T16:34:36.956Z,8.33
2019-01-19T16:37:17.796Z,8.33
2019-01-19T16:40:06.957Z,8.70
2019-01-19T16:43:01.142Z,8.80
2019-01-19T16:45:50.697Z,8.40
2019-01-19T16:48:55.355Z,9.83
2019-01-19T16:51:57.112Z,10.07
2019-01-19T16:55:07.394Z,8.20
2019-01-19T16:57:56.583Z,8.10
2019-01-19T17:00:54.141Z,8.23
2019-01-19T17:03:51.078Z,7.90
2019-01-19T17:06:38.675Z,7.73
2019-01-19T17:09:33.046Z,8.43
2019-01-19T17:13:12.667Z,8.37
2019-01-19T17:16:01.321Z,8.00
2019-01-19T17:18:42.193Z,9.50
2019-01-19T17:21:50.215Z,11.27
2019-01-19T17:24:37.645Z,12.73
2019-01-19T17:27:49.635Z,12.27
2019-01-19T17:30:59.217Z,13.10
2019-01-19T17:34:06.882Z,14.03
2019-01-19T17:37:04.143Z,13.83
2019-01-19T17:39:43.416Z,14.80
2019-01-19T17:42:53.533Z,14.10
2019-01-19T17:45:47.683Z,13.17
2019-01-19T17:48:43.177Z,14.60
2019-01-19T17:52:00.974Z,14.00
2019-01-19T17:55:16.493Z,13.77
2019-01-19T17:58:02.942Z,11.73
2019-01-19T18:00:51.675Z,13.17
2019-01-19T18:03:59.221Z,14.20
2019-01-19T18:07:12.067Z,14.90
2019-01-19T18:10:10.082Z,13.47
2019-01-19T18:12:49.632Z,14.13
2019-01-19T18:15:37.669Z,13.10
2019-01-19T18:18:19.495Z,15.00
2019-01-19T18:21:03.031Z,13.47
2019-01-19T18:24:10.851Z,13.70
2019-01-19T18:26:50.021Z,13.57
2019-01-19T18:29:50.018Z,13.23
2019-01-19T18:32:27.128Z,13.00
2019-01-19T18:35:29.450Z,12.80
2019-01-19T18:38:23.446Z,13.30
2019-01-19T18:41:14.883Z,12.40
2019-01-19T18:44:15.186Z,13.60
2019-01-19T18:47:16.331Z,13.37
2019-01-19T18:50:29.188Z,13.67
2019-01-19T18:53:19.656Z,13.53
2019-01-19T18:56:40.966Z,13.40
2019-01-19T18:59:43.732Z,13.93
2019-01-19T19:03:10.415Z,13.73
2019-01-19T19:06:21.874Z,10.47
2019-01-19T19:09:13.310Z,11.53
2019-01-19T19:12:30.178Z,10.80
2019-01-19T19:15:26.081Z,10.23
2019-01-19T19:18:33.133Z,11.77
2019-01-19T19:21:47.354Z,11.30
2019-01-19T19:24:30.434Z,11.63
2019-01-19T19:27:46.314Z,11.30
2019-01-19T19:30:44.969Z,12.33
2019-01-19T19:33:23.966Z,11.70
2019-01-19T19:36:34.462Z,12.23
2019-01-19T19:39:33.331Z,11.83
2019-01-19T19:42:51.235Z,11.30
2019-01-19T19:45:43.050Z,10.60
2019-01-19T19:48:50.738Z,11.43
2019-01-19T19:52:01.459Z,10.33
2019-01-19T19:54:31.688Z,10.13
2019-01-19T19:57:01.859Z,10.63
2019-01-19T19:59:32.242Z,9.67
2019-01-19T20:02:02.511Z,10.47
2019-01-19T20:04:32.741Z,10.43
2019-01-19T20:07:02.503Z,9.63
2019-01-19T20:09:33.430Z,10.20
2019-01-19T20:12:09.900Z,10.20
2019-01-19T20:14:40.553Z,10.07
2019-01-19T20:17:12.260Z,10.70
2019-01-19T20:19:45.868Z,10.23
2019-01-19T20:22:16.158Z,10.10
2019-01-19T20:24:46.421Z,10.93
2019-01-19T20:27:16.559Z,10.73
2019-01-19T20:29:47.008Z,10.20
2019-01-19T20:32:17.255Z,10.93
2019-01-19T20:34:46.778Z,11.10
2019-01-19T20:37:16.305Z,12.70
2019-01-19T20:39:46.291Z,10.30
2019-01-19T20:42:16.375Z,11.73
2019-01-19T20:44:46.303Z,11.20
2019-01-19T20:47:16.315Z,11.63
2019-01-19T20:49:46.539Z,11.97
2019-01-19T20:52:16.655Z,11.93
2019-01-19T20:54:46.205Z,12.83
2019-01-19T20:57:15.596Z,12.70
2019-01-19T20:59:45.769Z,12.30
2019-01-19T21:02:15.309Z,13.13
2019-01-19T21:04:45.061Z,13.20
2019-01-19T21:07:14.551Z,12.83
2019-01-19T21:09:46.054Z,12.63
2019-01-19T21:12:16.195Z,11.03
2019-01-19T21:14:46.617Z,11.83
2019-01-19T21:17:16.139Z,12.33
2019-01-19T21:19:46.388Z,11.60
2019-01-19T21:22:16.476Z,11.20
2019-01-19T21:24:46.906Z,12.67
2019-01-19T21:27:16.690Z,12.07
2019-01-19T21:29:46.726Z,11.77
2019-01-19T21:32:17.711Z,11.23
2019-01-19T21:34:48.803Z,10.60
2019-01-19T21:37:19.074Z,10.77
2019-01-19T21:39:50.805Z,10.73
2019-01-19T21:42:21.036Z,12.27
2019-01-19T21:44:51.230Z,12.20
2019-01-19T21:47:22.003Z,10.47
2019-01-19T21:49:51.560Z,10.27
2019-01-19T21:52:22.211Z,11.20
2019-01-19T21:54:52.337Z,10.43
2019-01-19T21:57:22.867Z,10.17
2019-01-19T21:59:52.502Z,9.77
2019-01-19T22:02:23.009Z,9.97
2019-01-19T22:04:52.700Z,11.17
2019-01-19T22:07:23.600Z,10.93
2019-01-19T22:09:53.414Z,10.00
2019-01-19T22:12:24.388Z,11.10
2019-01-19T22:14:54.826Z,10.70
2019-01-19T22:17:25.600Z,9.87
2019-01-19T22:19:55.854Z,9.87
2019-01-19T22:22:27.583Z,10.27
2019-01-19T22:24:58.230Z,9.37
2019-01-19T22:27:28.851Z,9.73
2019-01-19T22:29:59.631Z,10.57
2019-01-19T22:32:29.944Z,10.10
2019-01-19T22:35:00.090Z,10.47
2019-01-19T22:37:31.399Z,10.03
2019-01-19T22:40:01.356Z,9.83
2019-01-19T22:42:30.768Z,10.10
2019-01-19T22:45:00.364Z,10.60
2019-01-19T22:47:30.467Z,10.97
2019-01-19T22:50:00.693Z,9.53
2019-01-19T22:52:31.078Z,10.40
2019-01-19T22:55:02.522Z,10.70
2019-01-19T22:57:32.654Z,10.50
2019-01-19T23:00:02.261Z,11.57
2019-01-19T23:02:32.614Z,11.73
2019-01-19T23:05:02.812Z,12.53
2019-01-19T23:07:33.205Z,12.47
2019-01-19T23:10:03.817Z,12.30
2019-01-19T23:12:34.629Z,11.93
2019-01-19T23:15:06.226Z,12.83
2019-01-19T23:17:36.276Z,12.57
2019-01-19T23:20:07.230Z,12.50
2019-01-19T23:22:37.050Z,12.63
2019-01-19T23:25:07.905Z,11.93
2019-01-19T23:27:38.264Z,13.03
2019-01-19T23:30:09.416Z,11.43
2019-01-19T23:32:39.567Z,12.83
2019-01-19T23:35:09.972Z,12.23
2019-01-19T23:37:40.185Z,12.00
2019-01-19T23:40:11.899Z,12.20
2019-01-19T23:42:47.162Z,12.37
2019-01-19T23:45:13.719Z,13.40
2019-01-19T23:47:43.799Z,14.33
2019-01-19T23:50:15.344Z,15.17
2019-01-19T23:52:45.078Z,18.03
2019-01-19T23:55:15.123Z,18.47
2019-01-19T23:57:45.522Z,16.93
